To NAV CANADA Home Page Login to a new session Search on AWWS site Feedback and Comments Disclaimer Vers la page française équivalente Tips FAQ What's new on the site To the Forecasts and Observations / NOTAM section To "File a Flight Plan" website Publications and other links Update of the User's profile FIC Telephone Numbers My Weather Data Folder Route Weather Data Regional Weather Data Local Weather Data To the Forecasts and Observations / NOTAM section
Request Generated 05/30/2016 at 12:28:34 UTC . Weather information available at that time is displayed.

METAR/TAF

NAIN/NL    

METAR CYDP 301200Z 00000KT 15SM BKN210 01/M03 A3000 RMK CI6 SLP161=
METAR CYDP 301100Z 34003KT 300V360 15SM FEW028 FEW210 01/M03 A3000
RMK SC1CI1 SC TR SLP161=
METAR CYDP 301000Z VRB02KT 15SM FEW028 M02/M04 A3001 RMK SC1 SC TR
SLP164=

TAF CYDP 300939Z 3010/3022 VRB03KT P6SM FEW030 TEMPO 3010/3015 BKN030
BECMG 3013/3015 12008KT
RMK NXT FCST BY 301400Z=
Your time UTC time
Weather data provided by Environment Canada and NAV CANADA